Soaring Guidance
Issued by NWS Reno, NV

Home | Current Version | Previous Version | Text Only | Print | Product List | Glossary On
Versions: 1 2 3 4 5 6 7 8 9 10 11 12 13 14 15 16
000
UXUS97 KREV 301411
SRGREV

SOARING FORECAST
NATIONAL WEATHER SERVICE - RENO NV
700 AM PDT THU JUL 30 2015

THIS SOARING FORECAST IS FOR THE EASTERN SIERRA AND WESTERN NEVADA
WITH SPECIFIC INDICES FOR THE GREATER RENO AREA.

THIS FORECAST IS PREPARED DAILY BY 700 AM AND IS NOT UPDATED.

FOR CURRENT FLIGHT CONDITIONS...FORECASTS...AND ADVISORIES...ACCESS
YOUR LOCAL BRIEFING OUTLET OR FLIGHT SERVICE STATION.

*******************************************************************
FORECASTED LOCAL INDICES FOR RENO:        TODAY     YESTERDAY
FORECASTED MAX TEMP AT RENO (DEG F).....     99          88
FORECASTED TRIGGER TEMPERATURE (DEG F)..     84          77
   EXCEEDED YESTERDAY BY 1055 AM PDT
FORECASTED MAXIMUM ALTITUDE (FT MSL)....  17800       15800
FORECASTED SOARING INDEX (FPM)..........   1194         894
FORECASTED K-INDEX.........VALID 18Z....      8           3
FORECASTED K-INDEX.........VALID 00Z....     11           8
FORECASTED LIFTED INDEX....VALID 18Z....      5          10
FORECASTED LIFTED INDEX....VALID 00Z....      3           7

AFTERNOON WINDS ALOFT FORECAST
MSL (FT) WIND/TEMP
9000  0806/+20
10000 0806/+17
12000 0806/+11
14000 9905/+04
16000 9904/-02
18000 99 0/-09
24000 2013/-19
30000 2226/-36
34000 2048/-44
39000 2158/-55

SLIDE MOUNTAIN DATA:
     DATE       TIME     TEMP  DEWPT   RH         WIND (MPH)
                        (F)   (F)           | DIR  SPEED GUST
2015-07-30    05:50      58    30     23    | 078   18   25
2015-07-30    05:30      58    30     23    | 069   16   21
2015-07-30    05:20      58    30     23    | 066   15   19
2015-07-30    05:00      58    30     22    | 073   13   17

RENO TAF FORECAST:
KRNO 301120Z 3012/3112 VRB04KT P6SM SKC
     FM302100 08007KT P6SM FEW150
     FM310100 35009KT P6SM SCT150
     FM310400 VRB03KT P6SM SCT150

CARSON CITY TAF FORECAST:
KCXP 301120Z 3012/3112 VRB03KT P6SM SKC
     FM301900 06010G16KT P6SM FEW140
     FM310300 VRB03KT P6SM BKN140

OUTLOOK FOR THE RENO-CARSON CITY-MINDEN AREA:
.FRIDAY...MOSTLY CLOUDY. SLIGHT CHANCE OF SHOWERS AND THUNDERSTORMS
IN THE AFTERNOON. HIGHS 91 TO 96. NORTHEAST WINDS UP TO 10 MPH.

SUNRISE AND SUNSET
JULY 30 2015..........SUNRISE   557 AM PDT   SUNSET   814 PM PDT
JULY 31 2015..........SUNRISE   558 AM PDT   SUNSET   813 PM PDT


USA.gov is the U.S. government's official web portal to all federal, state and local government web resources and services.